sensor_id;sensor_type;location;lat;lon;timestamp;temperature;humidity
9762;DHT22;4920;49.594;11.022;2023-06-24T00:01:53;16.10;99.90
9762;DHT22;4920;49.594;11.022;2023-06-24T00:04:22;16.10;99.90
9762;DHT22;4920;49.594;11.022;2023-06-24T00:06:51;16.00;99.90
9762;DHT22;4920;49.594;11.022;2023-06-24T00:09:23;16.00;99.90
9762;DHT22;4920;49.594;11.022;2023-06-24T00:11:54;16.00;99.90
9762;DHT22;4920;49.594;11.022;2023-06-24T00:14:23;15.90;99.90
9762;DHT22;4920;49.594;11.022;2023-06-24T00:16:54;15.90;99.90
9762;DHT22;4920;49.594;11.022;2023-06-24T00:19:25;15.80;99.90
9762;DHT22;4920;49.594;11.022;2023-06-24T00:21:55;15.70;99.90
9762;DHT22;4920;49.594;11.022;2023-06-24T00:24:24;15.60;99.90
9762;DHT22;4920;49.594;11.022;2023-06-24T00:26:55;15.50;99.90
9762;DHT22;4920;49.594;11.022;2023-06-24T00:29:23;15.50;99.90
9762;DHT22;4920;49.594;11.022;2023-06-24T00:31:54;15.40;99.90
9762;DHT22;4920;49.594;11.022;2023-06-24T00:34:23;15.40;99.90
9762;DHT22;4920;49.594;11.022;2023-06-24T00:36:52;15.30;99.90
9762;DHT22;4920;49.594;11.022;2023-06-24T00:39:20;15.20;99.90
9762;DHT22;4920;49.594;11.022;2023-06-24T00:41:50;15.10;99.90
9762;DHT22;4920;49.594;11.022;2023-06-24T00:44:20;15.10;99.90
9762;DHT22;4920;49.594;11.022;2023-06-24T00:46:49;15.10;99.90
9762;DHT22;4920;49.594;11.022;2023-06-24T00:49:18;15.00;99.90
9762;DHT22;4920;49.594;11.022;2023-06-24T00:51:47;14.90;99.90
9762;DHT22;4920;49.594;11.022;2023-06-24T00:54:18;14.90;99.90
9762;DHT22;4920;49.594;11.022;2023-06-24T00:56:47;14.90;99.90
9762;DHT22;4920;49.594;11.022;2023-06-24T00:59:16;14.90;99.90
9762;DHT22;4920;49.594;11.022;2023-06-24T01:01:47;14.80;99.90
9762;DHT22;4920;49.594;11.022;2023-06-24T01:04:17;14.80;99.90
9762;DHT22;4920;49.594;11.022;2023-06-24T01:06:48;14.70;99.90
9762;DHT22;4920;49.594;11.022;2023-06-24T01:09:16;14.60;99.90
9762;DHT22;4920;49.594;11.022;2023-06-24T01:11:45;14.50;99.90
9762;DHT22;4920;49.594;11.022;2023-06-24T01:14:14;14.40;99.90
9762;DHT22;4920;49.594;11.022;2023-06-24T01:16:53;14.30;99.90
9762;DHT22;4920;49.594;11.022;2023-06-24T01:19:37;14.30;99.90
9762;DHT22;4920;49.594;11.022;2023-06-24T01:22:22;14.20;99.90
9762;DHT22;4920;49.594;11.022;2023-06-24T01:25:02;14.20;99.90
9762;DHT22;4920;49.594;11.022;2023-06-24T01:27:52;14.20;99.90
9762;DHT22;4920;49.594;11.022;2023-06-24T01:30:49;14.20;99.90
9762;DHT22;4920;49.594;11.022;2023-06-24T01:33:29;14.10;99.90
9762;DHT22;4920;49.594;11.022;2023-06-24T01:36:01;14.10;99.90
9762;DHT22;4920;49.594;11.022;2023-06-24T01:38:36;14.00;99.90
9762;DHT22;4920;49.594;11.022;2023-06-24T01:41:10;13.90;99.90
9762;DHT22;4920;49.594;11.022;2023-06-24T01:43:43;13.90;99.90
9762;DHT22;4920;49.594;11.022;2023-06-24T01:46:17;13.90;99.90
9762;DHT22;4920;49.594;11.022;2023-06-24T01:48:55;13.80;99.90
9762;DHT22;4920;49.594;11.022;2023-06-24T01:51:24;13.70;99.90
9762;DHT22;4920;49.594;11.022;2023-06-24T01:54:02;13.70;99.90
9762;DHT22;4920;49.594;11.022;2023-06-24T01:56:34;13.70;99.90
9762;DHT22;4920;49.594;11.022;2023-06-24T01:59:04;13.60;99.90
9762;DHT22;4920;49.594;11.022;2023-06-24T02:01:35;13.60;99.90
9762;DHT22;4920;49.594;11.022;2023-06-24T02:04:08;13.60;99.90
9762;DHT22;4920;49.594;11.022;2023-06-24T02:06:38;13.60;99.90
9762;DHT22;4920;49.594;11.022;2023-06-24T02:09:08;13.60;99.90
9762;DHT22;4920;49.594;11.022;2023-06-24T02:11:39;13.60;99.90
9762;DHT22;4920;49.594;11.022;2023-06-24T02:14:09;13.60;99.90
9762;DHT22;4920;49.594;11.022;2023-06-24T02:16:39;13.50;99.90
9762;DHT22;4920;49.594;11.022;2023-06-24T02:19:11;13.50;99.90
9762;DHT22;4920;49.594;11.022;2023-06-24T02:21:45;13.50;99.90
9762;DHT22;4920;49.594;11.022;2023-06-24T02:24:15;13.60;99.90
9762;DHT22;4920;49.594;11.022;2023-06-24T02:26:44;13.60;99.90
9762;DHT22;4920;49.594;11.022;2023-06-24T02:29:14;13.70;99.90
9762;DHT22;4920;49.594;11.022;2023-06-24T02:31:42;13.70;99.90
9762;DHT22;4920;49.594;11.022;2023-06-24T02:34:13;13.70;99.90
9762;DHT22;4920;49.594;11.022;2023-06-24T02:36:42;13.70;99.90
9762;DHT22;4920;49.594;11.022;2023-06-24T02:39:11;13.70;99.90
9762;DHT22;4920;49.594;11.022;2023-06-24T02:41:40;13.70;99.90
9762;DHT22;4920;49.594;11.022;2023-06-24T02:44:09;13.70;99.90
9762;DHT22;4920;49.594;11.022;2023-06-24T02:46:38;13.60;99.90
9762;DHT22;4920;49.594;11.022;2023-06-24T02:49:08;13.50;99.90
9762;DHT22;4920;49.594;11.022;2023-06-24T02:51:41;13.50;99.90
9762;DHT22;4920;49.594;11.022;2023-06-24T02:54:10;13.40;99.90
9762;DHT22;4920;49.594;11.022;2023-06-24T02:56:59;13.30;99.90
9762;DHT22;4920;49.594;11.022;2023-06-24T02:59:46;13.30;99.90
9762;DHT22;4920;49.594;11.022;2023-06-24T03:02:17;13.20;99.90
9762;DHT22;4920;49.594;11.022;2023-06-24T03:04:46;13.20;99.90
9762;DHT22;4920;49.594;11.022;2023-06-24T03:07:17;13.20;99.90
9762;DHT22;4920;49.594;11.022;2023-06-24T03:09:48;13.20;99.90
9762;DHT22;4920;49.594;11.022;2023-06-24T03:12:17;13.20;99.90
9762;DHT22;4920;49.594;11.022;2023-06-24T03:14:46;13.20;99.90
9762;DHT22;4920;49.594;11.022;2023-06-24T03:17:16;13.20;99.90
9762;DHT22;4920;49.594;11.022;2023-06-24T03:19:45;13.20;99.90
9762;DHT22;4920;49.594;11.022;2023-06-24T03:22:14;13.20;99.90
9762;DHT22;4920;49.594;11.022;2023-06-24T03:24:48;13.20;99.90
9762;DHT22;4920;49.594;11.022;2023-06-24T03:27:19;13.20;99.90
9762;DHT22;4920;49.594;11.022;2023-06-24T03:29:48;13.10;99.90
9762;DHT22;4920;49.594;11.022;2023-06-24T03:32:17;13.10;99.90
9762;DHT22;4920;49.594;11.022;2023-06-24T03:34:47;13.10;99.90
9762;DHT22;4920;49.594;11.022;2023-06-24T03:37:15;13.10;99.90
9762;DHT22;4920;49.594;11.022;2023-06-24T03:39:44;13.10;99.90
9762;DHT22;4920;49.594;11.022;2023-06-24T03:42:15;13.10;99.90
9762;DHT22;4920;49.594;11.022;2023-06-24T03:44:43;13.10;99.90
9762;DHT22;4920;49.594;11.022;2023-06-24T03:47:12;13.20;99.90
9762;DHT22;4920;49.594;11.022;2023-06-24T03:49:41;13.20;99.90
9762;DHT22;4920;49.594;11.022;2023-06-24T03:52:10;13.20;99.90
9762;DHT22;4920;49.594;11.022;2023-06-24T03:54:39;13.20;99.90
9762;DHT22;4920;49.594;11.022;2023-06-24T03:57:08;13.30;99.90
9762;DHT22;4920;49.594;11.022;2023-06-24T03:59:38;13.30;99.90
9762;DHT22;4920;49.594;11.022;2023-06-24T04:02:07;13.40;99.90
9762;DHT22;4920;49.594;11.022;2023-06-24T04:04:36;13.40;99.90
9762;DHT22;4920;49.594;11.022;2023-06-24T04:07:05;13.50;99.90
9762;DHT22;4920;49.594;11.022;2023-06-24T04:09:36;13.50;99.90
9762;DHT22;4920;49.594;11.022;2023-06-24T04:12:05;13.60;99.90
9762;DHT22;4920;49.594;11.022;2023-06-24T04:14:34;13.70;99.90
9762;DHT22;4920;49.594;11.022;2023-06-24T04:17:05;14.00;99.90
9762;DHT22;4920;49.594;11.022;2023-06-24T04:19:34;14.50;99.90
9762;DHT22;4920;49.594;11.022;2023-06-24T04:22:03;15.00;99.90
9762;DHT22;4920;49.594;11.022;2023-06-24T04:24:32;15.60;99.90
9762;DHT22;4920;49.594;11.022;2023-06-24T04:27:01;16.10;99.90
9762;DHT22;4920;49.594;11.022;2023-06-24T04:29:29;16.70;99.90
9762;DHT22;4920;49.594;11.022;2023-06-24T04:31:58;17.30;99.90
9762;DHT22;4920;49.594;11.022;2023-06-24T04:34:28;17.90;99.90
9762;DHT22;4920;49.594;11.022;2023-06-24T04:36:58;18.40;99.90
9762;DHT22;4920;49.594;11.022;2023-06-24T04:39:27;18.80;99.90
9762;DHT22;4920;49.594;11.022;2023-06-24T04:41:56;19.30;99.90
9762;DHT22;4920;49.594;11.022;2023-06-24T04:44:26;19.70;99.90
9762;DHT22;4920;49.594;11.022;2023-06-24T04:46:54;20.00;99.90
9762;DHT22;4920;49.594;11.022;2023-06-24T04:49:23;20.20;99.90
9762;DHT22;4920;49.594;11.022;2023-06-24T04:51:53;20.50;99.90
9762;DHT22;4920;49.594;11.022;2023-06-24T04:54:22;20.90;99.90
9762;DHT22;4920;49.594;11.022;2023-06-24T04:56:51;21.20;99.90
9762;DHT22;4920;49.594;11.022;2023-06-24T04:59:22;21.60;99.90
9762;DHT22;4920;49.594;11.022;2023-06-24T05:01:51;22.00;99.90
9762;DHT22;4920;49.594;11.022;2023-06-24T05:04:19;22.30;99.90
9762;DHT22;4920;49.594;11.022;2023-06-24T05:06:48;22.50;99.90
9762;DHT22;4920;49.594;11.022;2023-06-24T05:09:18;22.80;99.90
9762;DHT22;4920;49.594;11.022;2023-06-24T05:11:47;23.00;99.90
9762;DHT22;4920;49.594;11.022;2023-06-24T05:14:15;23.30;99.90
9762;DHT22;4920;49.594;11.022;2023-06-24T05:16:44;23.60;99.90
9762;DHT22;4920;49.594;11.022;2023-06-24T05:19:13;24.00;99.90
9762;DHT22;4920;49.594;11.022;2023-06-24T05:21:43;24.10;99.90
9762;DHT22;4920;49.594;11.022;2023-06-24T05:24:12;24.30;99.90
9762;DHT22;4920;49.594;11.022;2023-06-24T05:26:42;24.50;99.90
9762;DHT22;4920;49.594;11.022;2023-06-24T05:29:11;24.70;99.90
9762;DHT22;4920;49.594;11.022;2023-06-24T05:31:40;24.80;99.90
9762;DHT22;4920;49.594;11.022;2023-06-24T05:34:09;25.00;99.90
9762;DHT22;4920;49.594;11.022;2023-06-24T05:36:38;25.10;99.90
9762;DHT22;4920;49.594;11.022;2023-06-24T05:39:06;25.10;99.90
9762;DHT22;4920;49.594;11.022;2023-06-24T05:41:35;25.20;99.60
9762;DHT22;4920;49.594;11.022;2023-06-24T05:44:07;25.30;99.30
9762;DHT22;4920;49.594;11.022;2023-06-24T05:46:36;25.30;98.80
9762;DHT22;4920;49.594;11.022;2023-06-24T05:49:05;25.30;98.50
9762;DHT22;4920;49.594;11.022;2023-06-24T05:51:34;25.30;98.40
9762;DHT22;4920;49.594;11.022;2023-06-24T05:54:03;25.40;98.30
9762;DHT22;4920;49.594;11.022;2023-06-24T05:56:32;25.40;98.00
9762;DHT22;4920;49.594;11.022;2023-06-24T05:59:04;25.50;97.90
9762;DHT22;4920;49.594;11.022;2023-06-24T06:01:33;25.50;97.60
9762;DHT22;4920;49.594;11.022;2023-06-24T06:04:02;25.50;97.40
9762;DHT22;4920;49.594;11.022;2023-06-24T06:06:31;25.40;97.00
9762;DHT22;4920;49.594;11.022;2023-06-24T06:09:00;25.30;96.90
9762;DHT22;4920;49.594;11.022;2023-06-24T06:11:28;25.20;97.20
9762;DHT22;4920;49.594;11.022;2023-06-24T06:13:57;25.10;97.00
9762;DHT22;4920;49.594;11.022;2023-06-24T06:16:27;24.90;97.00
9762;DHT22;4920;49.594;11.022;2023-06-24T06:18:56;24.70;97.10
9762;DHT22;4920;49.594;11.022;2023-06-24T06:21:25;24.70;97.40
9762;DHT22;4920;49.594;11.022;2023-06-24T06:23:53;24.70;97.50
9762;DHT22;4920;49.594;11.022;2023-06-24T06:26:22;24.60;97.10
9762;DHT22;4920;49.594;11.022;2023-06-24T06:28:51;24.70;97.40
9762;DHT22;4920;49.594;11.022;2023-06-24T06:31:20;24.70;97.00
9762;DHT22;4920;49.594;11.022;2023-06-24T06:33:51;24.60;96.90
9762;DHT22;4920;49.594;11.022;2023-06-24T06:36:20;24.50;96.90
9762;DHT22;4920;49.594;11.022;2023-06-24T06:38:49;24.50;97.00
9762;DHT22;4920;49.594;11.022;2023-06-24T06:41:18;24.40;97.10
9762;DHT22;4920;49.594;11.022;2023-06-24T06:43:52;24.30;96.70
9762;DHT22;4920;49.594;11.022;2023-06-24T06:46:21;24.20;96.80
9762;DHT22;4920;49.594;11.022;2023-06-24T06:48:52;24.00;96.70
9762;DHT22;4920;49.594;11.022;2023-06-24T06:51:20;23.90;97.20
9762;DHT22;4920;49.594;11.022;2023-06-24T06:53:51;23.70;97.10
9762;DHT22;4920;49.594;11.022;2023-06-24T06:56:23;23.60;97.50
9762;DHT22;4920;49.594;11.022;2023-06-24T06:58:52;23.50;97.80
9762;DHT22;4920;49.594;11.022;2023-06-24T07:01:21;23.40;97.70
9762;DHT22;4920;49.594;11.022;2023-06-24T07:03:51;23.20;97.40
9762;DHT22;4920;49.594;11.022;2023-06-24T07:06:20;23.00;97.60
9762;DHT22;4920;49.594;11.022;2023-06-24T07:08:49;22.90;98.30
9762;DHT22;4920;49.594;11.022;2023-06-24T07:11:18;22.90;98.60
9762;DHT22;4920;49.594;11.022;2023-06-24T07:13:46;22.80;98.70
9762;DHT22;4920;49.594;11.022;2023-06-24T07:16:18;22.80;98.80
9762;DHT22;4920;49.594;11.022;2023-06-24T07:18:46;22.70;98.60
9762;DHT22;4920;49.594;11.022;2023-06-24T07:21:17;22.70;98.80
9762;DHT22;4920;49.594;11.022;2023-06-24T07:23:45;22.70;99.00
9762;DHT22;4920;49.594;11.022;2023-06-24T07:26:14;22.70;98.80
9762;DHT22;4920;49.594;11.022;2023-06-24T07:28:43;22.70;98.80
9762;DHT22;4920;49.594;11.022;2023-06-24T07:31:22;22.80;98.80
9762;DHT22;4920;49.594;11.022;2023-06-24T07:33:51;22.80;99.00
9762;DHT22;4920;49.594;11.022;2023-06-24T07:36:21;22.80;98.80
9762;DHT22;4920;49.594;11.022;2023-06-24T07:38:50;22.80;98.80
9762;DHT22;4920;49.594;11.022;2023-06-24T07:41:19;22.70;98.60
9762;DHT22;4920;49.594;11.022;2023-06-24T07:43:48;22.70;98.80
9762;DHT22;4920;49.594;11.022;2023-06-24T07:46:17;22.60;98.70
9762;DHT22;4920;49.594;11.022;2023-06-24T07:48:46;22.60;98.80
9762;DHT22;4920;49.594;11.022;2023-06-24T07:51:15;22.50;99.20
9762;DHT22;4920;49.594;11.022;2023-06-24T07:53:45;22.50;99.30
9762;DHT22;4920;49.594;11.022;2023-06-24T07:56:14;22.50;99.50
9762;DHT22;4920;49.594;11.022;2023-06-24T07:58:43;22.50;98.80
9762;DHT22;4920;49.594;11.022;2023-06-24T08:01:11;22.50;99.00
9762;DHT22;4920;49.594;11.022;2023-06-24T08:03:40;22.50;98.70
9762;DHT22;4920;49.594;11.022;2023-06-24T08:06:09;22.50;99.10
9762;DHT22;4920;49.594;11.022;2023-06-24T08:08:37;22.50;99.20
9762;DHT22;4920;49.594;11.022;2023-06-24T08:11:08;22.50;99.00
9762;DHT22;4920;49.594;11.022;2023-06-24T08:13:37;22.60;98.70
9762;DHT22;4920;49.594;11.022;2023-06-24T08:16:06;22.60;98.70
9762;DHT22;4920;49.594;11.022;2023-06-24T08:18:34;22.70;98.80
9762;DHT22;4920;49.594;11.022;2023-06-24T08:21:03;22.70;98.80
9762;DHT22;4920;49.594;11.022;2023-06-24T08:23:32;22.80;98.80
9762;DHT22;4920;49.594;11.022;2023-06-24T08:26:00;22.90;98.50
9762;DHT22;4920;49.594;11.022;2023-06-24T08:28:46;22.90;98.70
9762;DHT22;4920;49.594;11.022;2023-06-24T08:31:15;22.90;98.70
9762;DHT22;4920;49.594;11.022;2023-06-24T08:33:44;22.80;98.40
9762;DHT22;4920;49.594;11.022;2023-06-24T08:36:13;22.90;98.40
9762;DHT22;4920;49.594;11.022;2023-06-24T08:38:42;22.90;98.00
9762;DHT22;4920;49.594;11.022;2023-06-24T08:41:11;23.00;97.90
9762;DHT22;4920;49.594;11.022;2023-06-24T08:43:40;23.20;97.90
9762;DHT22;4920;49.594;11.022;2023-06-24T08:46:13;23.40;96.80
9762;DHT22;4920;49.594;11.022;2023-06-24T08:48:43;23.40;96.50
9762;DHT22;4920;49.594;11.022;2023-06-24T08:51:16;23.60;96.70
9762;DHT22;4920;49.594;11.022;2023-06-24T08:53:48;23.60;94.70
9762;DHT22;4920;49.594;11.022;2023-06-24T08:56:17;23.80;93.20
9762;DHT22;4920;49.594;11.022;2023-06-24T08:58:46;23.90;92.60
9762;DHT22;4920;49.594;11.022;2023-06-24T09:01:17;23.80;92.70
9762;DHT22;4920;49.594;11.022;2023-06-24T09:03:51;23.90;93.40
9762;DHT22;4920;49.594;11.022;2023-06-24T09:06:20;23.90;92.00
9762;DHT22;4920;49.594;11.022;2023-06-24T09:08:53;23.90;92.50
9762;DHT22;4920;49.594;11.022;2023-06-24T09:11:22;23.90;92.80
9762;DHT22;4920;49.594;11.022;2023-06-24T09:13:54;24.10;92.70
9762;DHT22;4920;49.594;11.022;2023-06-24T09:16:25;24.20;92.20
9762;DHT22;4920;49.594;11.022;2023-06-24T09:18:54;24.40;90.50
9762;DHT22;4920;49.594;11.022;2023-06-24T09:21:24;24.40;90.90
9762;DHT22;4920;49.594;11.022;2023-06-24T09:23:53;24.60;90.40
9762;DHT22;4920;49.594;11.022;2023-06-24T09:26:23;24.50;90.30
9762;DHT22;4920;49.594;11.022;2023-06-24T09:28:53;24.60;90.30
9762;DHT22;4920;49.594;11.022;2023-06-24T09:31:25;24.70;89.70
9762;DHT22;4920;49.594;11.022;2023-06-24T09:33:57;24.90;90.00
9762;DHT22;4920;49.594;11.022;2023-06-24T09:36:26;24.90;89.30
9762;DHT22;4920;49.594;11.022;2023-06-24T09:38:55;25.00;89.10
9762;DHT22;4920;49.594;11.022;2023-06-24T09:41:35;25.10;88.70
9762;DHT22;4920;49.594;11.022;2023-06-24T09:44:08;25.20;88.50
9762;DHT22;4920;49.594;11.022;2023-06-24T09:46:38;25.40;87.70
9762;DHT22;4920;49.594;11.022;2023-06-24T09:49:06;25.30;86.30
9762;DHT22;4920;49.594;11.022;2023-06-24T09:51:37;25.10;86.50
9762;DHT22;4920;49.594;11.022;2023-06-24T09:54:07;25.10;85.90
9762;DHT22;4920;49.594;11.022;2023-06-24T09:56:37;25.10;86.10
9762;DHT22;4920;49.594;11.022;2023-06-24T09:59:06;25.40;86.00
9762;DHT22;4920;49.594;11.022;2023-06-24T10:01:38;25.70;84.60
9762;DHT22;4920;49.594;11.022;2023-06-24T10:04:08;25.80;84.40
9762;DHT22;4920;49.594;11.022;2023-06-24T10:06:37;25.80;83.90
9762;DHT22;4920;49.594;11.022;2023-06-24T10:09:06;26.00;84.40
9762;DHT22;4920;49.594;11.022;2023-06-24T10:11:35;26.30;83.30
9762;DHT22;4920;49.594;11.022;2023-06-24T10:14:04;26.60;80.80
9762;DHT22;4920;49.594;11.022;2023-06-24T10:16:37;26.70;79.20
9762;DHT22;4920;49.594;11.022;2023-06-24T10:19:06;26.50;80.30
9762;DHT22;4920;49.594;11.022;2023-06-24T10:21:45;26.30;80.30
9762;DHT22;4920;49.594;11.022;2023-06-24T10:24:28;26.30;81.20
9762;DHT22;4920;49.594;11.022;2023-06-24T10:27:02;26.30;80.80
9762;DHT22;4920;49.594;11.022;2023-06-24T10:29:34;26.40;80.30
9762;DHT22;4920;49.594;11.022;2023-06-24T10:32:06;26.60;77.70
9762;DHT22;4920;49.594;11.022;2023-06-24T10:34:39;26.80;77.70
9762;DHT22;4920;49.594;11.022;2023-06-24T10:37:11;26.90;75.60
9762;DHT22;4920;49.594;11.022;2023-06-24T10:39:50;27.20;75.70
9762;DHT22;4920;49.594;11.022;2023-06-24T10:42:36;27.40;74.90
9762;DHT22;4920;49.594;11.022;2023-06-24T10:45:20;27.50;74.80
9762;DHT22;4920;49.594;11.022;2023-06-24T10:47:51;27.50;75.00
9762;DHT22;4920;49.594;11.022;2023-06-24T10:50:24;27.50;75.30
9762;DHT22;4920;49.594;11.022;2023-06-24T10:52:53;27.40;75.60
9762;DHT22;4920;49.594;11.022;2023-06-24T10:55:24;27.30;74.10
9762;DHT22;4920;49.594;11.022;2023-06-24T10:57:53;27.10;73.90
9762;DHT22;4920;49.594;11.022;2023-06-24T11:00:22;27.00;74.70
9762;DHT22;4920;49.594;11.022;2023-06-24T11:02:52;26.80;75.50
9762;DHT22;4920;49.594;11.022;2023-06-24T11:05:21;26.90;76.30
9762;DHT22;4920;49.594;11.022;2023-06-24T11:07:50;27.10;75.10
9762;DHT22;4920;49.594;11.022;2023-06-24T11:10:18;27.10;74.10
9762;DHT22;4920;49.594;11.022;2023-06-24T11:12:47;27.30;74.40
9762;DHT22;4920;49.594;11.022;2023-06-24T11:15:16;27.40;73.40
9762;DHT22;4920;49.594;11.022;2023-06-24T11:17:50;27.50;73.10
9762;DHT22;4920;49.594;11.022;2023-06-24T11:20:20;27.60;73.30
9762;DHT22;4920;49.594;11.022;2023-06-24T11:22:49;27.70;71.10
9762;DHT22;4920;49.594;11.022;2023-06-24T11:25:18;27.60;70.70
9762;DHT22;4920;49.594;11.022;2023-06-24T11:27:50;27.50;70.00
9762;DHT22;4920;49.594;11.022;2023-06-24T11:30:19;27.30;71.20
9762;DHT22;4920;49.594;11.022;2023-06-24T11:32:48;27.40;72.10
9762;DHT22;4920;49.594;11.022;2023-06-24T11:35:17;27.20;70.20
9762;DHT22;4920;49.594;11.022;2023-06-24T11:37:48;27.20;70.70
9762;DHT22;4920;49.594;11.022;2023-06-24T11:40:18;27.30;70.80
9762;DHT22;4920;49.594;11.022;2023-06-24T11:42:48;27.30;71.40
9762;DHT22;4920;49.594;11.022;2023-06-24T11:45:21;27.20;72.10
9762;DHT22;4920;49.594;11.022;2023-06-24T11:47:50;27.20;70.70
9762;DHT22;4920;49.594;11.022;2023-06-24T11:50:25;27.20;70.20
9762;DHT22;4920;49.594;11.022;2023-06-24T11:52:56;27.30;68.00
9762;DHT22;4920;49.594;11.022;2023-06-24T11:55:27;27.50;67.00
9762;DHT22;4920;49.594;11.022;2023-06-24T11:57:57;27.70;67.20
9762;DHT22;4920;49.594;11.022;2023-06-24T12:00:27;28.10;67.50
9762;DHT22;4920;49.594;11.022;2023-06-24T12:02:58;28.40;66.40
9762;DHT22;4920;49.594;11.022;2023-06-24T12:05:28;28.20;66.80
9762;DHT22;4920;49.594;11.022;2023-06-24T12:08:00;28.10;67.60
9762;DHT22;4920;49.594;11.022;2023-06-24T12:10:30;28.10;68.30
9762;DHT22;4920;49.594;11.022;2023-06-24T12:13:02;28.20;67.60
9762;DHT22;4920;49.594;11.022;2023-06-24T12:15:33;28.20;67.70
9762;DHT22;4920;49.594;11.022;2023-06-24T12:18:02;28.20;67.40
9762;DHT22;4920;49.594;11.022;2023-06-24T12:20:31;28.00;65.90
9762;DHT22;4920;49.594;11.022;2023-06-24T12:23:07;27.90;65.60
9762;DHT22;4920;49.594;11.022;2023-06-24T12:25:35;28.00;65.60
9762;DHT22;4920;49.594;11.022;2023-06-24T12:28:04;27.90;66.40
9762;DHT22;4920;49.594;11.022;2023-06-24T12:30:33;27.70;65.90
9762;DHT22;4920;49.594;11.022;2023-06-24T12:33:02;27.60;67.30
9762;DHT22;4920;49.594;11.022;2023-06-24T12:35:31;27.50;68.10
9762;DHT22;4920;49.594;11.022;2023-06-24T12:38:00;27.40;67.60
9762;DHT22;4920;49.594;11.022;2023-06-24T12:40:30;27.20;67.50
9762;DHT22;4920;49.594;11.022;2023-06-24T12:42:59;27.00;68.30
9762;DHT22;4920;49.594;11.022;2023-06-24T12:45:27;27.00;68.20
9762;DHT22;4920;49.594;11.022;2023-06-24T12:47:56;27.10;67.70
9762;DHT22;4920;49.594;11.022;2023-06-24T12:50:27;27.30;66.60
9762;DHT22;4920;49.594;11.022;2023-06-24T12:52:59;27.60;65.10
9762;DHT22;4920;49.594;11.022;2023-06-24T12:55:27;27.80;65.80
9762;DHT22;4920;49.594;11.022;2023-06-24T12:57:58;27.90;65.20
9762;DHT22;4920;49.594;11.022;2023-06-24T13:00:26;27.70;66.70
9762;DHT22;4920;49.594;11.022;2023-06-24T13:02:55;27.40;67.90
9762;DHT22;4920;49.594;11.022;2023-06-24T13:05:24;27.20;67.80
9762;DHT22;4920;49.594;11.022;2023-06-24T13:07:53;27.20;67.80
9762;DHT22;4920;49.594;11.022;2023-06-24T13:10:21;27.40;65.50
9762;DHT22;4920;49.594;11.022;2023-06-24T13:12:50;27.60;64.00
9762;DHT22;4920;49.594;11.022;2023-06-24T13:15:21;27.70;63.40
9762;DHT22;4920;49.594;11.022;2023-06-24T13:17:49;27.90;63.30
9762;DHT22;4920;49.594;11.022;2023-06-24T13:20:18;27.90;63.60
9762;DHT22;4920;49.594;11.022;2023-06-24T13:22:47;27.70;64.10
9762;DHT22;4920;49.594;11.022;2023-06-24T13:25:16;27.60;64.00
9762;DHT22;4920;49.594;11.022;2023-06-24T13:27:44;27.70;63.30
9762;DHT22;4920;49.594;11.022;2023-06-24T13:30:14;27.60;61.10
9762;DHT22;4920;49.594;11.022;2023-06-24T13:32:45;27.50;61.20
9762;DHT22;4920;49.594;11.022;2023-06-24T13:35:14;27.40;61.10
9762;DHT22;4920;49.594;11.022;2023-06-24T13:37:42;27.20;60.70
9762;DHT22;4920;49.594;11.022;2023-06-24T13:40:12;27.10;59.70
9762;DHT22;4920;49.594;11.022;2023-06-24T13:42:40;27.20;59.50
9762;DHT22;4920;49.594;11.022;2023-06-24T13:45:10;27.40;61.90
9762;DHT22;4920;49.594;11.022;2023-06-24T13:47:38;27.70;60.70
9762;DHT22;4920;49.594;11.022;2023-06-24T13:50:10;27.90;59.90
9762;DHT22;4920;49.594;11.022;2023-06-24T13:52:38;28.00;57.60
9762;DHT22;4920;49.594;11.022;2023-06-24T13:55:08;28.20;57.60
9762;DHT22;4920;49.594;11.022;2023-06-24T13:57:36;28.30;58.80
9762;DHT22;4920;49.594;11.022;2023-06-24T14:00:06;28.30;59.30
9762;DHT22;4920;49.594;11.022;2023-06-24T14:02:38;28.30;59.80
9762;DHT22;4920;49.594;11.022;2023-06-24T14:05:09;28.10;59.80
9762;DHT22;4920;49.594;11.022;2023-06-24T14:07:38;28.00;60.30
9762;DHT22;4920;49.594;11.022;2023-06-24T14:10:07;28.00;59.80
9762;DHT22;4920;49.594;11.022;2023-06-24T14:12:36;28.00;59.00
9762;DHT22;4920;49.594;11.022;2023-06-24T14:15:06;28.00;58.00
9762;DHT22;4920;49.594;11.022;2023-06-24T14:17:35;28.10;56.30
9762;DHT22;4920;49.594;11.022;2023-06-24T14:20:04;28.10;55.70
9762;DHT22;4920;49.594;11.022;2023-06-24T14:22:35;28.30;55.60
9762;DHT22;4920;49.594;11.022;2023-06-24T14:25:04;28.40;56.40
9762;DHT22;4920;49.594;11.022;2023-06-24T14:27:33;28.40;56.50
9762;DHT22;4920;49.594;11.022;2023-06-24T14:30:02;28.20;56.90
9762;DHT22;4920;49.594;11.022;2023-06-24T14:32:30;28.10;57.70
9762;DHT22;4920;49.594;11.022;2023-06-24T14:34:59;28.00;55.00
9762;DHT22;4920;49.594;11.022;2023-06-24T14:37:28;28.00;53.60
9762;DHT22;4920;49.594;11.022;2023-06-24T14:39:58;28.10;54.90
9762;DHT22;4920;49.594;11.022;2023-06-24T14:42:26;28.10;54.00
9762;DHT22;4920;49.594;11.022;2023-06-24T14:44:55;28.20;53.90
9762;DHT22;4920;49.594;11.022;2023-06-24T14:47:24;28.30;53.90
9762;DHT22;4920;49.594;11.022;2023-06-24T14:49:53;28.30;53.20
9762;DHT22;4920;49.594;11.022;2023-06-24T14:52:21;28.40;52.90
9762;DHT22;4920;49.594;11.022;2023-06-24T14:54:50;28.40;51.50
9762;DHT22;4920;49.594;11.022;2023-06-24T14:57:20;28.40;51.80
9762;DHT22;4920;49.594;11.022;2023-06-24T14:59:50;28.30;52.30
9762;DHT22;4920;49.594;11.022;2023-06-24T15:02:19;28.20;53.00
9762;DHT22;4920;49.594;11.022;2023-06-24T15:04:48;27.90;54.90
9762;DHT22;4920;49.594;11.022;2023-06-24T15:07:17;27.80;56.70
9762;DHT22;4920;49.594;11.022;2023-06-24T15:09:45;27.50;56.60
9762;DHT22;4920;49.594;11.022;2023-06-24T15:12:14;27.40;57.50
9762;DHT22;4920;49.594;11.022;2023-06-24T15:14:44;27.40;58.60
9762;DHT22;4920;49.594;11.022;2023-06-24T15:17:15;27.40;58.10
9762;DHT22;4920;49.594;11.022;2023-06-24T15:19:44;27.40;57.80
9762;DHT22;4920;49.594;11.022;2023-06-24T15:22:13;27.40;57.30
9762;DHT22;4920;49.594;11.022;2023-06-24T15:24:41;27.40;57.40
9762;DHT22;4920;49.594;11.022;2023-06-24T15:27:12;27.60;57.10
9762;DHT22;4920;49.594;11.022;2023-06-24T15:29:41;27.60;56.00
9762;DHT22;4920;49.594;11.022;2023-06-24T15:32:11;27.50;55.80
9762;DHT22;4920;49.594;11.022;2023-06-24T15:34:39;27.50;56.50
9762;DHT22;4920;49.594;11.022;2023-06-24T15:37:08;27.30;56.20
9762;DHT22;4920;49.594;11.022;2023-06-24T15:39:37;27.20;56.70
9762;DHT22;4920;49.594;11.022;2023-06-24T15:42:06;27.20;56.10
9762;DHT22;4920;49.594;11.022;2023-06-24T15:44:35;27.20;56.10
9762;DHT22;4920;49.594;11.022;2023-06-24T15:47:03;27.30;56.40
9762;DHT22;4920;49.594;11.022;2023-06-24T15:49:33;27.40;56.90
9762;DHT22;4920;49.594;11.022;2023-06-24T15:52:02;27.50;57.20
9762;DHT22;4920;49.594;11.022;2023-06-24T15:54:31;27.60;56.60
9762;DHT22;4920;49.594;11.022;2023-06-24T15:57:00;27.50;57.20
9762;DHT22;4920;49.594;11.022;2023-06-24T15:59:29;27.60;56.30
9762;DHT22;4920;49.594;11.022;2023-06-24T16:01:57;27.50;56.00
9762;DHT22;4920;49.594;11.022;2023-06-24T16:04:26;27.40;56.50